Time;durP1;ratioP1;P1;durP2;ratioP2;P2;SDS_P1;SDS_P2;PMS_P1;PMS_P2;Temp;Humidity;BMP_temperature;BMP_pressure;BME280_temperature;BME280_humidity;BME280_pressure;Samples;Min_cycle;Max_cycle;Signal;HPM_P1;HPM_P2
2022/01/08 00:02:21;;;;;;;18.95;7.93;;;1.50;99.90;;;;;;4888311;29;20051;-79
2022/01/08 00:04:47;;;;;;;15.63;5.15;;;1.50;99.90;;;;;;4888292;29;20067;-80
2022/01/08 00:07:13;;;;;;;15.68;7.63;;;1.50;99.90;;;;;;4899099;29;20131;-79
2022/01/08 00:09:38;;;;;;;13.55;5.65;;;1.50;99.90;;;;;;4911038;29;20048;-79
2022/01/08 00:12:04;;;;;;;17.30;6.70;;;1.50;99.90;;;;;;4899517;29;20056;-84
2022/01/08 00:14:30;;;;;;;19.52;7.57;;;1.50;99.90;;;;;;4899642;29;20056;-78
2022/01/08 00:16:58;;;;;;;9.70;4.82;;;1.50;99.90;;;;;;4880687;29;20048;-79
2022/01/08 00:19:24;;;;;;;14.27;6.85;;;1.50;99.90;;;;;;4898943;29;20048;-78
2022/01/08 00:21:49;;;;;;;14.43;6.82;;;1.50;99.90;;;;;;4900983;29;20040;-79
2022/01/08 00:24:15;;;;;;;14.65;7.45;;;1.40;99.90;;;;;;4881730;29;20051;-80
2022/01/08 00:26:41;;;;;;;15.63;6.60;;;1.30;99.90;;;;;;4908195;29;20566;-81
2022/01/08 00:29:07;;;;;;;13.77;6.10;;;1.20;99.90;;;;;;4883456;29;20083;-83
2022/01/08 00:31:33;;;;;;;14.02;5.72;;;1.20;99.90;;;;;;4898639;29;20569;-81
2022/01/08 00:33:59;;;;;;;15.38;6.35;;;1.20;99.90;;;;;;4915217;29;20048;-79
2022/01/08 00:36:24;;;;;;;13.27;7.10;;;1.30;99.90;;;;;;4903667;29;20410;-78
2022/01/08 00:38:50;;;;;;;19.10;6.15;;;1.30;99.90;;;;;;4909715;29;20055;-77
2022/01/08 00:41:16;;;;;;;15.52;6.15;;;1.30;99.90;;;;;;4915201;29;20648;-78
2022/01/08 00:43:41;;;;;;;19.35;7.03;;;1.30;99.90;;;;;;4896981;29;20084;-78
2022/01/08 00:46:07;;;;;;;14.23;6.95;;;1.40;99.90;;;;;;4898508;29;20052;-84
2022/01/08 00:48:33;;;;;;;10.43;6.38;;;1.40;99.90;;;;;;4898446;29;20513;-77
2022/01/08 00:50:59;;;;;;;13.38;5.47;;;1.40;99.90;;;;;;4905288;29;20056;-77
2022/01/08 00:53:24;;;;;;;16.92;6.63;;;1.40;99.90;;;;;;4912058;29;20056;-78
2022/01/08 00:55:50;;;;;;;15.15;6.28;;;1.30;99.90;;;;;;4915467;29;20048;-78
2022/01/08 00:58:16;;;;;;;16.15;6.53;;;1.30;99.90;;;;;;4893403;29;20055;-78
2022/01/08 01:00:42;;;;;;;19.27;5.68;;;1.20;99.90;;;;;;4915165;29;20048;-78
2022/01/08 01:03:08;;;;;;;15.15;5.63;;;1.30;99.90;;;;;;4878684;29;20041;-78
2022/01/08 01:05:34;;;;;;;13.05;6.75;;;1.30;99.90;;;;;;4907498;29;20123;-78
2022/01/08 01:08:00;;;;;;;15.88;5.93;;;1.20;99.90;;;;;;4902986;29;20054;-78
2022/01/08 01:10:26;;;;;;;11.57;5.85;;;1.20;99.90;;;;;;4882979;29;20702;-77
2022/01/08 01:12:52;;;;;;;12.68;5.55;;;1.20;99.90;;;;;;4896421;29;20061;-77
2022/01/08 01:15:18;;;;;;;14.80;5.25;;;1.20;99.90;;;;;;4897137;29;20044;-78
2022/01/08 01:17:45;;;;;;;12.57;5.22;;;1.20;99.90;;;;;;4901268;29;20490;-78
2022/01/08 01:20:13;;;;;;;12.40;5.20;;;1.20;99.90;;;;;;4903627;29;20052;-78
2022/01/08 01:23:02;;;;;;;16.90;6.60;;;1.30;99.90;;;;;;4902092;29;20123;-78
2022/01/08 01:25:36;;;;;;;13.25;6.20;;;1.40;99.90;;;;;;4897456;29;20056;-78
2022/01/08 01:28:24;;;;;;;14.18;5.68;;;1.40;99.90;;;;;;4905488;29;20060;-80
2022/01/08 01:47:16;;;;;;;19.27;6.78;;;1.30;99.90;;;;;;4905763;29;20466;-83
2022/01/08 01:49:45;;;;;;;17.73;7.72;;;1.20;99.90;;;;;;4898627;29;20052;-78
2022/01/08 01:52:13;;;;;;;21.48;8.65;;;1.20;99.90;;;;;;4897392;29;20119;-78
2022/01/08 01:54:39;;;;;;;19.88;8.07;;;1.30;99.90;;;;;;4897262;29;20055;-78
2022/01/08 01:57:08;;;;;;;17.90;8.63;;;1.20;99.90;;;;;;4897958;29;20040;-78
2022/01/08 01:59:35;;;;;;;17.80;9.20;;;1.30;99.90;;;;;;4913556;29;20047;-78
2022/01/08 02:02:01;;;;;;;20.23;9.98;;;1.30;99.90;;;;;;4901922;29;20349;-78
2022/01/08 02:04:27;;;;;;;22.48;10.43;;;1.30;99.90;;;;;;4896894;29;20086;-78
2022/01/08 02:06:52;;;;;;;23.50;11.00;;;1.40;99.90;;;;;;4914149;29;20081;-78
2022/01/08 02:09:18;;;;;;;16.27;8.85;;;1.50;99.90;;;;;;4900395;29;20051;-82
2022/01/08 02:12:00;;;;;;;23.70;11.68;;;1.50;99.90;;;;;;4891108;29;20051;-77
2022/01/08 02:14:28;;;;;;;23.17;11.63;;;1.50;99.90;;;;;;4913497;29;20063;-78
2022/01/08 02:16:54;;;;;;;22.42;10.75;;;1.50;99.90;;;;;;4914029;29;20055;-77
2022/01/08 02:19:21;;;;;;;21.52;10.68;;;1.40;99.90;;;;;;4913750;29;20148;-83
2022/01/08 02:21:56;;;;;;;24.67;11.40;;;1.30;99.90;;;;;;4895188;29;20063;-81
2022/01/08 02:24:22;;;;;;;20.08;9.40;;;1.30;99.90;;;;;;4897787;29;20574;-83
2022/01/08 02:26:48;;;;;;;28.00;11.23;;;1.30;99.90;;;;;;4911767;29;20044;-78
2022/01/08 02:29:16;;;;;;;26.65;13.13;;;1.30;99.90;;;;;;4900954;29;20075;-78
2022/01/08 02:31:56;;;;;;;22.65;11.07;;;1.30;99.90;;;;;;4908973;29;20059;-78
2022/01/08 02:34:22;;;;;;;23.27;11.90;;;1.20;99.90;;;;;;4883671;29;20530;-85
2022/01/08 02:36:48;;;;;;;24.75;11.05;;;1.20;99.90;;;;;;4904793;29;20044;-78
2022/01/08 02:39:14;;;;;;;22.30;11.57;;;1.10;99.90;;;;;;4894465;29;20052;-78
2022/01/08 02:41:40;;;;;;;29.58;11.95;;;1.10;99.90;;;;;;4882688;29;20091;-78
2022/01/08 02:44:07;;;;;;;24.83;11.63;;;1.10;99.90;;;;;;4895195;29;20048;-79
2022/01/08 02:46:33;;;;;;;23.27;11.20;;;1.10;99.90;;;;;;4910591;29;20443;-79
2022/01/08 02:48:59;;;;;;;23.45;11.50;;;1.10;99.90;;;;;;4881093;29;20080;-79
2022/01/08 02:51:24;;;;;;;32.58;11.45;;;1.00;99.90;;;;;;4884256;29;20084;-82
2022/01/08 02:53:51;;;;;;;22.02;10.48;;;1.00;99.90;;;;;;4886107;29;20060;-78
2022/01/08 02:56:17;;;;;;;29.30;11.07;;;1.00;99.90;;;;;;4885138;29;20056;-79
2022/01/08 02:58:43;;;;;;;24.38;11.50;;;1.00;99.90;;;;;;4903430;29;20135;-79
2022/01/08 03:01:09;;;;;;;29.13;12.30;;;0.90;99.90;;;;;;4909133;29;20084;-78
2022/01/08 03:03:35;;;;;;;23.65;10.57;;;0.90;99.90;;;;;;4901360;29;20067;-79
2022/01/08 03:06:01;;;;;;;24.48;10.60;;;0.80;99.90;;;;;;4903337;29;20110;-78
2022/01/08 03:08:26;;;;;;;28.58;11.18;;;0.90;99.90;;;;;;4912460;29;20453;-84
2022/01/08 03:10:53;;;;;;;25.63;10.13;;;0.80;99.90;;;;;;4884827;29;20084;-79
2022/01/08 03:13:19;;;;;;;16.85;8.45;;;0.80;99.90;;;;;;4911194;29;20048;-79
2022/01/08 03:15:45;;;;;;;27.27;10.70;;;0.80;99.90;;;;;;4898674;29;20095;-79
2022/01/08 03:18:11;;;;;;;21.40;10.20;;;0.80;99.90;;;;;;4910635;29;20044;-79
2022/01/08 03:20:46;;;;;;;23.50;9.93;;;0.70;99.90;;;;;;4898089;29;20059;-80
2022/01/08 03:23:15;;;;;;;20.90;10.20;;;0.80;99.90;;;;;;4901597;29;20142;-79
2022/01/08 03:25:41;;;;;;;22.23;9.18;;;0.80;99.90;;;;;;4892298;29;20067;-78
2022/01/08 03:28:07;;;;;;;23.13;9.70;;;0.70;99.90;;;;;;4888154;29;20052;-79
2022/01/08 03:30:34;;;;;;;21.38;9.43;;;0.60;99.90;;;;;;4901725;29;20040;-79
2022/01/08 03:33:00;;;;;;;24.50;9.85;;;0.60;99.90;;;;;;4909391;29;20191;-78
2022/01/08 03:35:26;;;;;;;18.23;9.20;;;0.70;99.90;;;;;;4892175;29;20052;-79
2022/01/08 03:37:52;;;;;;;15.15;8.07;;;0.60;99.90;;;;;;4914029;29;20393;-79
2022/01/08 03:40:18;;;;;;;17.70;8.15;;;0.60;99.90;;;;;;4907524;29;20044;-78
2022/01/08 03:42:44;;;;;;;21.15;8.15;;;0.60;99.90;;;;;;4889942;29;20054;-78
2022/01/08 03:45:10;;;;;;;21.98;9.25;;;0.60;99.90;;;;;;4892869;29;20044;-78
2022/01/08 03:48:05;;;;;;;19.92;8.48;;;0.60;99.90;;;;;;4899397;29;20115;-81
2022/01/08 03:50:28;;;;;;;18.52;7.60;;;0.60;99.90;;;;;;4899366;29;20115;-79
2022/01/08 03:52:54;;;;;;;15.07;7.53;;;0.60;99.90;;;;;;4880906;29;20698;-78
2022/01/08 03:55:20;;;;;;;19.17;8.02;;;0.70;99.90;;;;;;4889414;29;20046;-78
2022/01/08 03:57:45;;;;;;;16.85;7.72;;;0.60;99.90;;;;;;4912303;29;20410;-79
2022/01/08 04:00:12;;;;;;;13.43;6.85;;;0.60;99.90;;;;;;4909872;29;20044;-79
2022/01/08 04:02:38;;;;;;;14.48;6.85;;;0.60;99.90;;;;;;4883402;29;20056;-78
2022/01/08 04:05:04;;;;;;;15.82;6.78;;;0.70;99.90;;;;;;4914720;29;20135;-78
2022/01/08 04:07:30;;;;;;;18.10;8.07;;;0.60;99.90;;;;;;4892313;29;20048;-78
2022/01/08 04:09:55;;;;;;;17.33;6.95;;;0.60;99.90;;;;;;4889494;29;20111;-79
2022/01/08 04:12:32;;;;;;;14.88;6.13;;;0.60;99.90;;;;;;4910400;29;20059;-79
2022/01/08 04:15:06;;;;;;;17.95;6.13;;;0.60;99.90;;;;;;4899037;29;20044;-79
2022/01/08 04:17:32;;;;;;;14.13;5.82;;;0.70;99.90;;;;;;4899541;29;20066;-79
2022/01/08 04:19:58;;;;;;;13.55;5.90;;;0.70;99.90;;;;;;4868843;29;20036;-79
2022/01/08 04:22:25;;;;;;;13.68;4.75;;;0.70;99.90;;;;;;4898125;29;20574;-79
2022/01/08 04:24:51;;;;;;;11.75;5.15;;;0.60;99.90;;;;;;4888664;29;20056;-78
2022/01/08 04:27:16;;;;;;;10.95;5.03;;;0.70;99.90;;;;;;4890721;29;20040;-79
2022/01/08 04:29:42;;;;;;;13.43;6.25;;;0.70;99.90;;;;;;4897137;29;20044;-79
2022/01/08 04:32:08;;;;;;;12.10;4.70;;;0.80;99.90;;;;;;4901974;29;20068;-78
2022/01/08 04:34:34;;;;;;;15.27;4.10;;;0.80;99.90;;;;;;4897971;29;20123;-78
2022/01/08 04:37:00;;;;;;;12.32;4.28;;;0.80;99.90;;;;;;4894412;29;20040;-80
2022/01/08 04:39:27;;;;;;;10.05;4.10;;;0.90;99.90;;;;;;4874639;29;20059;-79
2022/01/08 04:41:53;;;;;;;15.50;4.90;;;1.00;99.90;;;;;;4899485;29;20055;-78
2022/01/08 04:44:19;;;;;;;12.05;4.25;;;1.00;99.90;;;;;;4899096;29;20048;-79
2022/01/08 04:46:45;;;;;;;14.65;4.70;;;1.00;99.90;;;;;;4909786;29;20443;-78
2022/01/08 04:49:11;;;;;;;15.38;4.45;;;1.00;99.90;;;;;;4900398;29;20605;-78
2022/01/08 04:51:37;;;;;;;12.05;4.95;;;0.90;99.90;;;;;;4897182;29;20115;-79
2022/01/08 04:54:03;;;;;;;13.30;5.15;;;0.90;99.90;;;;;;4912280;29;20048;-78
2022/01/08 04:56:28;;;;;;;17.17;4.93;;;0.90;99.90;;;;;;4898319;29;20115;-78
2022/01/08 04:58:54;;;;;;;13.32;5.22;;;0.90;99.90;;;;;;4898259;29;20083;-78
2022/01/08 05:01:20;;;;;;;18.38;6.45;;;0.90;99.90;;;;;;4898905;29;20044;-78
2022/01/08 05:03:46;;;;;;;17.90;6.35;;;0.80;99.90;;;;;;4886571;29;20175;-78
2022/01/08 05:06:11;;;;;;;20.05;7.40;;;0.80;99.90;;;;;;4910260;29;20083;-81
2022/01/08 05:08:37;;;;;;;24.42;7.97;;;0.80;99.90;;;;;;4898523;29;20044;-78
2022/01/08 05:11:03;;;;;;;15.20;7.28;;;0.80;99.90;;;;;;4878574;29;20359;-78
2022/01/08 05:13:29;;;;;;;22.45;8.27;;;0.80;99.90;;;;;;4901053;29;20059;-79
2022/01/08 05:15:55;;;;;;;21.15;8.93;;;0.80;99.90;;;;;;4913160;29;20429;-78
2022/01/08 05:18:22;;;;;;;25.30;8.98;;;0.90;99.90;;;;;;4890750;29;20087;-78
2022/01/08 05:20:56;;;;;;;24.75;9.23;;;1.00;99.90;;;;;;4896475;29;20060;-81
2022/01/08 05:23:22;;;;;;;27.83;10.65;;;1.00;99.90;;;;;;4900712;29;20520;-79
2022/01/08 05:25:47;;;;;;;19.40;9.43;;;0.90;99.90;;;;;;4912041;29;20088;-78
2022/01/08 05:28:13;;;;;;;29.02;11.00;;;0.90;99.90;;;;;;4908767;29;20405;-78
2022/01/08 05:30:39;;;;;;;21.88;9.50;;;1.00;99.90;;;;;;4901620;29;20397;-78
2022/01/08 05:33:04;;;;;;;25.38;9.35;;;0.80;99.90;;;;;;4908030;29;20198;-78
2022/01/08 05:35:30;;;;;;;25.25;9.05;;;0.80;99.90;;;;;;4888387;29;20130;-78
2022/01/08 05:37:56;;;;;;;24.45;9.60;;;0.80;99.90;;;;;;4912741;29;20056;-79
2022/01/08 05:40:23;;;;;;;23.52;8.93;;;0.70;99.90;;;;;;4898793;29;20048;-78
2022/01/08 05:42:49;;;;;;;24.63;10.07;;;0.70;99.90;;;;;;4895778;29;20566;-79
2022/01/08 05:45:14;;;;;;;26.85;9.60;;;0.60;99.90;;;;;;4910554;29;20478;-78
2022/01/08 05:47:40;;;;;;;33.38;10.30;;;0.60;99.90;;;;;;4855738;29;20052;-78
2022/01/08 05:50:07;;;;;;;20.80;9.50;;;0.70;99.90;;;;;;4901971;29;20048;-79
2022/01/08 05:52:33;;;;;;;16.85;8.82;;;0.70;99.90;;;;;;4909750;29;20054;-78
2022/01/08 05:54:59;;;;;;;23.17;9.90;;;0.70;99.90;;;;;;4899073;29;20143;-79
2022/01/08 05:57:25;;;;;;;27.00;9.90;;;0.70;99.90;;;;;;4906079;29;20135;-78
2022/01/08 05:59:50;;;;;;;26.70;9.57;;;0.60;99.90;;;;;;4889343;29;20052;-80
2022/01/08 06:02:16;;;;;;;21.17;9.73;;;0.60;99.90;;;;;;4880341;29;20120;-79
2022/01/08 06:04:42;;;;;;;25.48;9.57;;;0.70;99.90;;;;;;4896661;29;20059;-79
2022/01/08 06:07:08;;;;;;;17.58;7.75;;;0.70;99.90;;;;;;4897192;29;20115;-78
2022/01/08 06:09:34;;;;;;;21.00;8.80;;;0.60;99.90;;;;;;4905852;29;20055;-78
2022/01/08 06:11:59;;;;;;;25.40;8.35;;;0.60;99.90;;;;;;4884251;29;20485;-78
2022/01/08 06:14:25;;;;;;;21.42;8.32;;;0.60;99.90;;;;;;4911467;29;20046;-78
2022/01/08 06:16:51;;;;;;;17.08;8.00;;;0.70;99.90;;;;;;4894816;29;20048;-83
2022/01/08 06:19:16;;;;;;;22.23;7.85;;;0.60;99.90;;;;;;4896876;29;20052;-79
2022/01/08 06:21:43;;;;;;;17.50;7.47;;;0.60;99.90;;;;;;4885202;29;20055;-78
2022/01/08 06:24:09;;;;;;;21.05;8.02;;;0.60;99.90;;;;;;4900956;29;20044;-79
2022/01/08 06:26:35;;;;;;;20.27;8.30;;;0.60;99.90;;;;;;4895782;29;20056;-78
2022/01/08 06:29:00;;;;;;;19.98;8.43;;;0.50;99.90;;;;;;4881182;29;20883;-80
2022/01/08 06:31:27;;;;;;;22.80;7.70;;;0.50;99.90;;;;;;4900749;29;20750;-80
2022/01/08 06:33:53;;;;;;;18.73;7.68;;;0.50;99.90;;;;;;4889014;29;20056;-85
2022/01/08 06:36:19;;;;;;;17.52;7.78;;;0.50;99.90;;;;;;4904281;29;20095;-79
2022/01/08 06:38:46;;;;;;;23.90;7.53;;;0.50;99.90;;;;;;4889714;29;20044;-78
2022/01/08 06:41:12;;;;;;;16.60;8.38;;;0.50;99.90;;;;;;4900600;29;20059;-79
2022/01/08 06:43:38;;;;;;;22.02;8.27;;;0.50;99.90;;;;;;4913748;29;20039;-78
2022/01/08 06:46:04;;;;;;;18.50;7.60;;;0.50;99.90;;;;;;4895330;29;20131;-79
2022/01/08 06:48:30;;;;;;;21.83;8.48;;;0.40;99.90;;;;;;4882152;29;20379;-79
2022/01/08 06:50:55;;;;;;;23.75;7.65;;;0.40;99.90;;;;;;4898660;29;20052;-83
2022/01/08 06:53:21;;;;;;;23.45;7.75;;;0.30;99.90;;;;;;4889790;29;20131;-81
2022/01/08 06:55:47;;;;;;;26.65;8.35;;;0.40;99.90;;;;;;4884910;29;20058;-79
2022/01/08 06:58:13;;;;;;;19.65;7.38;;;0.40;99.90;;;;;;4887229;29;20051;-79
2022/01/08 07:00:39;;;;;;;17.10;6.78;;;0.40;99.90;;;;;;4896384;29;20056;-78
2022/01/08 07:03:09;;;;;;;22.77;7.05;;;0.30;99.90;;;;;;4908025;29;20052;-78
2022/01/08 07:05:38;;;;;;;21.73;6.47;;;0.30;99.90;;;;;;4879240;29;20063;-78
2022/01/08 07:08:04;;;;;;;15.75;6.55;;;0.30;99.90;;;;;;4903158;29;20478;-79
2022/01/08 07:10:30;;;;;;;21.10;7.10;;;0.20;99.90;;;;;;4900634;29;20451;-78
2022/01/08 07:12:56;;;;;;;22.35;7.72;;;0.30;99.90;;;;;;4906495;29;20048;-82
2022/01/08 07:15:21;;;;;;;21.92;8.05;;;0.20;99.90;;;;;;4867780;29;20059;-78
2022/01/08 07:17:47;;;;;;;25.50;7.72;;;0.10;99.90;;;;;;4892538;29;20139;-79
2022/01/08 07:20:13;;;;;;;19.65;7.40;;;0.10;99.90;;;;;;4900176;29;20052;-79
2022/01/08 07:22:39;;;;;;;20.00;7.68;;;0.20;99.90;;;;;;4914945;29;20048;-79
2022/01/08 07:25:06;;;;;;;28.88;8.70;;;0.20;99.90;;;;;;4899693;29;20044;-79
2022/01/08 07:27:33;;;;;;;23.73;7.10;;;0.20;99.90;;;;;;4901411;29;20193;-81
2022/01/08 07:30:06;;;;;;;25.30;7.78;;;0.30;99.90;;;;;;4901116;29;20063;-83
2022/01/08 07:32:32;;;;;;;24.30;8.20;;;0.20;99.90;;;;;;4900153;29;20112;-80
2022/01/08 07:34:58;;;;;;;21.17;7.93;;;0.10;99.90;;;;;;4876117;29;20091;-79
2022/01/08 07:37:24;;;;;;;25.95;8.60;;;0.20;99.90;;;;;;4911567;29;20093;-79
2022/01/08 07:39:50;;;;;;;25.40;8.07;;;0.10;99.90;;;;;;4892357;29;20410;-81
2022/01/08 07:42:16;;;;;;;24.88;8.13;;;0.20;99.90;;;;;;4887405;29;20067;-79
2022/01/08 07:44:42;;;;;;;24.15;8.50;;;0.10;99.90;;;;;;4875787;29;20044;-81
2022/01/08 07:47:07;;;;;;;22.40;7.38;;;0.10;99.90;;;;;;4886115;29;20048;-81
2022/01/08 07:49:33;;;;;;;21.33;7.78;;;0.10;99.90;;;;;;4891755;29;20607;-81
2022/01/08 07:52:00;;;;;;;35.53;9.50;;;0.10;99.90;;;;;;4882667;29;20045;-79
2022/01/08 07:54:25;;;;;;;26.67;7.55;;;0.10;99.90;;;;;;4890570;29;20119;-78
2022/01/08 07:56:51;;;;;;;26.88;7.93;;;0.10;99.90;;;;;;4886481;29;20224;-78
2022/01/08 07:59:17;;;;;;;20.00;7.43;;;0.10;99.90;;;;;;4883740;29;20138;-80
2022/01/08 08:01:42;;;;;;;24.75;7.78;;;0.10;99.90;;;;;;4883942;29;20509;-78
2022/01/08 08:04:08;;;;;;;32.38;9.70;;;0.10;99.90;;;;;;4899464;29;20040;-79
2022/01/08 08:06:42;;;;;;;21.65;7.63;;;0.10;99.90;;;;;;4883059;29;20138;-79
2022/01/08 08:09:08;;;;;;;20.80;7.40;;;0.20;99.90;;;;;;4885579;29;20057;-79
2022/01/08 08:11:33;;;;;;;24.70;8.07;;;0.20;99.90;;;;;;4872300;29;20071;-79
2022/01/08 08:13:59;;;;;;;17.88;7.25;;;0.20;99.90;;;;;;4899025;29;20079;-79
2022/01/08 08:16:25;;;;;;;20.50;7.60;;;0.20;99.90;;;;;;4915603;29;20044;-78
2022/01/08 08:18:51;;;;;;;21.05;8.38;;;0.20;99.90;;;;;;4903298;29;20055;-78
2022/01/08 08:21:16;;;;;;;21.95;6.97;;;0.30;99.90;;;;;;4908664;29;20108;-80
2022/01/08 08:23:42;;;;;;;21.52;8.48;;;0.30;99.90;;;;;;4890615;29;20468;-79
2022/01/08 08:26:08;;;;;;;21.30;7.47;;;0.40;99.90;;;;;;4882350;29;20048;-83
2022/01/08 08:28:33;;;;;;;41.80;9.05;;;0.40;99.90;;;;;;4888703;29;20473;-79
2022/01/08 08:30:59;;;;;;;24.55;7.45;;;0.40;99.90;;;;;;4899088;29;20052;-79
2022/01/08 08:33:25;;;;;;;28.40;7.60;;;0.50;99.90;;;;;;4898254;29;20060;-79
2022/01/08 08:35:50;;;;;;;20.48;7.30;;;0.60;99.90;;;;;;4899811;29;20079;-78
2022/01/08 08:38:16;;;;;;;18.67;6.10;;;0.70;99.90;;;;;;4898723;29;20092;-79
2022/01/08 08:40:42;;;;;;;19.77;6.75;;;0.70;99.90;;;;;;4896469;29;20142;-81
2022/01/08 08:43:08;;;;;;;20.52;6.93;;;0.80;99.90;;;;;;4902595;29;20056;-85
2022/01/08 08:45:34;;;;;;;19.92;6.07;;;0.80;99.90;;;;;;4894192;29;20051;-79
2022/01/08 08:47:59;;;;;;;22.35;6.07;;;0.90;99.90;;;;;;4901254;29;20055;-79
2022/01/08 08:50:25;;;;;;;21.08;6.03;;;0.90;99.90;;;;;;4867325;29;20557;-79
2022/01/08 08:52:53;;;;;;;17.80;6.60;;;0.90;99.90;;;;;;4866541;29;20429;-80
2022/01/08 08:55:19;;;;;;;20.52;6.28;;;1.00;99.90;;;;;;4883278;29;20063;-84
2022/01/08 08:57:45;;;;;;;14.60;6.05;;;1.10;99.90;;;;;;4882109;29;20052;-79
2022/01/08 09:00:13;;;;;;;17.65;7.28;;;1.10;99.90;;;;;;4877629;29;20040;-85
2022/01/08 09:02:39;;;;;;;16.63;6.57;;;1.10;99.90;;;;;;4884415;29;20047;-78
2022/01/08 09:05:06;;;;;;;18.13;5.90;;;1.10;99.90;;;;;;4902153;29;20131;-78
2022/01/08 09:07:33;;;;;;;20.13;6.55;;;1.10;99.90;;;;;;4871002;29;20047;-82
2022/01/08 09:09:59;;;;;;;20.77;6.60;;;1.10;99.90;;;;;;4903926;29;20406;-85
2022/01/08 09:12:25;;;;;;;15.98;6.68;;;1.20;99.90;;;;;;4888820;29;20052;-84
2022/01/08 09:14:50;;;;;;;19.88;7.28;;;1.20;99.90;;;;;;4882078;29;20047;-80
2022/01/08 09:17:17;;;;;;;19.63;6.15;;;1.30;99.90;;;;;;4859717;29;20392;-77
2022/01/08 09:19:43;;;;;;;19.55;6.82;;;1.30;99.90;;;;;;4880517;29;20047;-80
2022/01/08 09:22:10;;;;;;;18.67;6.80;;;1.40;99.90;;;;;;4912493;29;20068;-80
2022/01/08 09:24:36;;;;;;;24.92;6.70;;;1.40;99.90;;;;;;4898728;29;20040;-79
2022/01/08 09:27:03;;;;;;;18.65;6.55;;;1.40;99.90;;;;;;4881567;29;20063;-82
2022/01/08 09:29:29;;;;;;;25.25;6.88;;;1.50;99.90;;;;;;4897210;29;20059;-79
2022/01/08 09:31:55;;;;;;;21.38;6.88;;;1.50;99.90;;;;;;4866175;29;20402;-78
2022/01/08 09:34:21;;;;;;;14.93;6.65;;;1.60;99.90;;;;;;4896680;29;20059;-77
2022/01/08 09:36:48;;;;;;;21.70;7.10;;;1.60;99.90;;;;;;4882627;29;20055;-79
2022/01/08 09:39:15;;;;;;;16.08;6.30;;;1.60;99.90;;;;;;4897712;29;20466;-84
2022/01/08 09:41:40;;;;;;;15.90;6.45;;;1.80;99.90;;;;;;4884293;29;20051;-78
2022/01/08 09:44:06;;;;;;;23.08;8.23;;;1.90;99.90;;;;;;4897466;29;20052;-81
2022/01/08 09:46:32;;;;;;;23.80;7.63;;;1.90;99.90;;;;;;4866949;29;20048;-81
2022/01/08 09:48:58;;;;;;;19.58;7.63;;;1.90;99.90;;;;;;4898717;29;20050;-83
2022/01/08 09:51:26;;;;;;;26.13;8.10;;;2.00;99.90;;;;;;4898595;29;20047;-82
2022/01/08 09:53:52;;;;;;;19.75;7.38;;;1.90;99.90;;;;;;4913781;29;20058;-82
2022/01/08 09:56:18;;;;;;;23.35;8.57;;;1.90;99.90;;;;;;4889332;29;20406;-84
2022/01/08 09:58:44;;;;;;;24.10;9.00;;;1.90;99.90;;;;;;4898682;29;20044;-75
2022/01/08 10:01:25;;;;;;;18.85;7.53;;;1.80;99.90;;;;;;4898853;29;20100;-82
2022/01/08 10:03:52;;;;;;;22.73;7.50;;;1.90;99.90;;;;;;4895099;29;20774;-75
2022/01/08 10:06:26;;;;;;;14.95;7.32;;;1.80;99.90;;;;;;4896343;29;20048;-85
2022/01/08 10:08:52;;;;;;;19.25;6.93;;;1.90;99.90;;;;;;4911904;29;20052;-75
2022/01/08 10:11:19;;;;;;;26.20;8.38;;;1.90;99.90;;;;;;4911614;29;20048;-82
2022/01/08 10:13:47;;;;;;;25.90;7.07;;;1.90;99.90;;;;;;4898651;29;20052;-73
2022/01/08 10:19:00;;;;;;;20.95;6.93;;;2.10;99.90;;;;;;4909946;29;20063;-74
2022/01/08 10:21:29;;;;;;;23.77;7.68;;;2.10;99.90;;;;;;4901609;29;20036;-76
2022/01/08 10:24:04;;;;;;;21.52;7.97;;;2.10;99.90;;;;;;4912167;29;20059;-75
2022/01/08 10:26:33;;;;;;;24.73;8.90;;;2.10;99.90;;;;;;4896703;29;20156;-74
2022/01/08 10:29:10;;;;;;;18.80;7.97;;;2.20;99.90;;;;;;4898889;29;20187;-78
2022/01/08 10:31:48;;;;;;;23.30;8.90;;;2.20;99.90;;;;;;4909762;29;20052;-77
2022/01/08 10:34:30;;;;;;;17.60;7.90;;;2.20;99.90;;;;;;4918335;29;20056;-79
2022/01/08 10:36:56;;;;;;;21.38;8.68;;;2.30;99.90;;;;;;4920366;29;20044;-74
2022/01/08 10:39:28;;;;;;;23.80;9.27;;;2.30;99.90;;;;;;4909432;29;20103;-81
2022/01/08 10:41:55;;;;;;;18.45;9.00;;;2.40;99.90;;;;;;4905041;29;20059;-73
2022/01/08 10:44:25;;;;;;;22.67;10.05;;;2.50;99.90;;;;;;4921798;29;20047;-73
2022/01/08 10:47:13;;;;;;;25.77;11.27;;;2.50;99.90;;;;;;4887263;29;20133;-75
2022/01/08 10:49:41;;;;;;;20.95;10.57;;;2.60;99.90;;;;;;4901485;29;20104;-73
2022/01/08 10:52:12;;;;;;;21.70;10.93;;;2.70;99.90;;;;;;4909005;29;20091;-75
2022/01/08 10:54:46;;;;;;;20.67;11.10;;;2.70;99.90;;;;;;4900041;29;20055;-73
2022/01/08 10:57:14;;;;;;;24.23;11.48;;;2.80;99.90;;;;;;4921059;29;20051;-74
2022/01/08 10:59:41;;;;;;;18.90;11.38;;;2.80;99.90;;;;;;4917594;29;20055;-73
2022/01/08 11:02:08;;;;;;;23.27;12.13;;;2.80;99.90;;;;;;4920816;29;20253;-77
2022/01/08 11:04:36;;;;;;;27.55;11.95;;;2.80;99.90;;;;;;4902314;29;20131;-74
2022/01/08 11:07:07;;;;;;;24.33;12.13;;;2.80;99.90;;;;;;4919090;29;20561;-76
2022/01/08 11:09:35;;;;;;;36.42;12.88;;;2.80;99.90;;;;;;4902024;29;20498;-73
2022/01/08 11:12:03;;;;;;;24.83;11.73;;;2.80;99.90;;;;;;4892791;29;20043;-71
2022/01/08 11:17:37;;;;;;;25.52;12.45;;;2.80;99.90;;;;;;4906294;29;20059;-75
2022/01/08 11:20:05;;;;;;;29.52;11.80;;;2.80;99.90;;;;;;4885679;29;20091;-72
2022/01/08 11:22:32;;;;;;;29.75;12.70;;;2.80;99.90;;;;;;4918538;29;20048;-78
2022/01/08 11:25:03;;;;;;;23.45;10.57;;;2.80;99.90;;;;;;4901632;29;20411;-74
2022/01/08 11:27:50;;;;;;;23.52;11.25;;;2.80;99.90;;;;;;4906509;29;20052;-83
2022/01/08 11:30:26;;;;;;;26.80;12.05;;;2.90;99.90;;;;;;4917901;29;20160;-75
2022/01/08 11:32:57;;;;;;;20.70;11.10;;;3.00;99.90;;;;;;4917884;29;20108;-74
2022/01/08 11:35:25;;;;;;;22.95;10.68;;;3.10;99.90;;;;;;4905088;29;20071;-75
2022/01/08 11:37:53;;;;;;;23.95;10.73;;;3.10;99.90;;;;;;4892027;29;20139;-76
2022/01/08 11:40:23;;;;;;;33.55;11.82;;;3.20;99.90;;;;;;4922214;29;20127;-81
2022/01/08 11:42:49;;;;;;;24.17;11.68;;;3.20;99.90;;;;;;4898496;29;20127;-75
2022/01/08 11:45:21;;;;;;;22.80;10.02;;;3.30;99.90;;;;;;4915801;29;20131;-72
2022/01/08 11:47:51;;;;;;;17.95;9.80;;;3.30;99.90;;;;;;4899584;29;20491;-74
2022/01/08 11:50:24;;;;;;;26.40;12.02;;;3.30;99.90;;;;;;4914231;29;20083;-74
2022/01/08 11:53:19;;;;;;;25.13;11.25;;;3.30;99.90;;;;;;4915193;29;20066;-75
2022/01/08 11:55:50;;;;;;;37.38;16.80;;;3.40;99.90;;;;;;4900261;29;20044;-74
2022/01/08 11:58:23;;;;;;;30.58;14.30;;;3.30;99.90;;;;;;4899706;29;20075;-75
2022/01/08 12:00:54;;;;;;;27.10;13.27;;;3.40;99.90;;;;;;4898519;29;20058;-73
2022/01/08 12:03:23;;;;;;;27.70;14.20;;;3.40;99.90;;;;;;4914340;29;20505;-73
2022/01/08 12:05:49;;;;;;;22.02;12.63;;;3.40;99.90;;;;;;4900525;29;20047;-74
2022/01/08 12:08:17;;;;;;;18.15;11.57;;;3.40;99.90;;;;;;4915420;29;20063;-75
2022/01/08 12:11:04;;;;;;;29.83;12.98;;;3.50;99.90;;;;;;4910928;29;20092;-74
2022/01/08 12:13:48;;;;;;;28.15;13.38;;;3.60;99.90;;;;;;4874380;29;20052;-73
2022/01/08 12:16:32;;;;;;;28.92;14.00;;;3.50;99.90;;;;;;4915695;29;20079;-80
2022/01/08 12:18:58;;;;;;;25.17;13.02;;;3.60;99.90;;;;;;4896144;29;20056;-74
2022/01/08 12:21:42;;;;;;;24.33;12.95;;;3.60;99.90;;;;;;4898690;29;20460;-73
2022/01/08 12:24:20;;;;;;;22.63;13.52;;;3.70;99.90;;;;;;4898687;29;20055;-73
2022/01/08 12:26:46;;;;;;;31.35;14.20;;;3.70;99.90;;;;;;4915958;29;20048;-76
2022/01/08 12:29:35;;;;;;;27.38;15.70;;;3.60;99.90;;;;;;4898551;29;20487;-75
2022/01/08 12:32:32;;;;;;;27.17;15.98;;;3.70;99.90;;;;;;4915540;29;20091;-76
2022/01/08 12:35:32;;;;;;;32.25;16.20;;;3.70;99.90;;;;;;4890123;29;20068;-74
2022/01/08 12:38:00;;;;;;;28.90;17.13;;;3.70;99.90;;;;;;4918553;29;20056;-74
2022/01/08 12:40:40;;;;;;;30.90;17.65;;;3.70;99.90;;;;;;4898850;29;20056;-74
2022/01/08 12:43:34;;;;;;;33.60;19.65;;;3.70;99.90;;;;;;4896030;29;20056;-73
2022/01/08 12:46:23;;;;;;;33.45;18.92;;;3.70;99.90;;;;;;4882829;29;20052;-74
2022/01/08 12:49:06;;;;;;;32.25;18.52;;;3.70;99.90;;;;;;4897710;29;20056;-75
2022/01/08 12:51:55;;;;;;;32.60;17.95;;;3.60;99.90;;;;;;4913779;29;20048;-76
2022/01/08 12:54:22;;;;;;;30.80;18.92;;;3.70;99.90;;;;;;4911490;29;20058;-76
2022/01/08 12:56:50;;;;;;;33.08;18.55;;;3.60;99.90;;;;;;4907335;29;20455;-76
2022/01/08 12:59:16;;;;;;;29.67;18.83;;;3.60;99.90;;;;;;4905846;29;20100;-73
2022/01/08 13:01:47;;;;;;;31.27;19.02;;;3.60;99.90;;;;;;4906009;29;20063;-76
2022/01/08 13:04:16;;;;;;;33.67;20.05;;;3.60;99.90;;;;;;4913924;29;20051;-75
2022/01/08 13:06:43;;;;;;;32.33;20.35;;;3.60;99.90;;;;;;4899809;29;20071;-77
2022/01/08 13:09:09;;;;;;;32.10;20.35;;;3.60;99.90;;;;;;4916886;29;20072;-76
2022/01/08 13:11:37;;;;;;;35.85;20.83;;;3.60;99.90;;;;;;4897877;29;20132;-76